createdAt,value
2022-11-24T00:00:15.430Z,36.01
2022-11-24T00:02:42.497Z,35.86
2022-11-24T00:05:09.499Z,36.29
2022-11-24T00:07:36.371Z,36.48
2022-11-24T00:10:03.711Z,35.94
2022-11-24T00:12:30.549Z,36.56
2022-11-24T00:14:57.409Z,36.07
2022-11-24T00:17:24.362Z,36.18
2022-11-24T00:19:51.192Z,36.43
2022-11-24T00:22:18.054Z,36.57
2022-11-24T00:24:44.918Z,35.91
2022-11-24T00:27:11.764Z,36.27
2022-11-24T00:29:38.631Z,36.29
2022-11-24T00:32:06.625Z,35.99
2022-11-24T00:34:33.913Z,36.58
2022-11-24T00:37:00.909Z,36.37
2022-11-24T00:39:27.817Z,36.63
2022-11-24T00:41:54.857Z,36.55
2022-11-24T00:44:21.709Z,36.17
2022-11-24T00:46:48.749Z,36.39
2022-11-24T00:49:15.776Z,36.66
2022-11-24T00:51:42.694Z,36.23
2022-11-24T00:54:09.580Z,36.18
2022-11-24T00:56:36.410Z,36.21
2022-11-24T00:59:03.662Z,36.57
2022-11-24T01:01:33.674Z,36.35
2022-11-24T01:04:03.721Z,36.60
2022-11-24T01:06:30.790Z,36.89
2022-11-24T01:08:58.039Z,36.92
2022-11-24T01:11:52.641Z,36.99
2022-11-24T01:14:19.931Z,36.88
2022-11-24T01:16:46.826Z,36.86
2022-11-24T01:19:13.759Z,37.07
2022-11-24T01:21:40.668Z,37.29
2022-11-24T01:24:07.554Z,37.43
2022-11-24T01:26:34.404Z,37.23
2022-11-24T01:29:01.394Z,37.52
2022-11-24T01:31:28.465Z,37.30
2022-11-24T01:33:55.476Z,37.39
2022-11-24T01:36:22.436Z,37.30
2022-11-24T01:38:49.302Z,37.49
2022-11-24T01:41:23.680Z,37.75
2022-11-24T01:43:52.208Z,37.48
2022-11-24T01:46:29.334Z,37.71
2022-11-24T01:49:06.262Z,37.62
2022-11-24T01:51:34.698Z,37.95
2022-11-24T01:54:10.074Z,37.43
2022-11-24T01:56:38.095Z,37.26
2022-11-24T01:59:05.352Z,37.71
2022-11-24T02:01:32.381Z,37.52
2022-11-24T02:03:59.948Z,37.20
2022-11-24T02:06:28.187Z,37.73
2022-11-24T02:08:59.229Z,37.89
2022-11-24T02:11:28.327Z,37.75
2022-11-24T02:13:55.215Z,37.99
2022-11-24T02:16:22.181Z,38.12
2022-11-24T02:18:49.139Z,38.31
2022-11-24T02:21:16.233Z,37.86
2022-11-24T02:23:57.369Z,37.41
2022-11-24T02:26:41.890Z,37.30
2022-11-24T02:29:10.105Z,37.16
2022-11-24T02:31:37.156Z,37.38
2022-11-24T02:34:04.008Z,37.56
2022-11-24T02:36:31.030Z,37.33
2022-11-24T02:38:57.970Z,37.16
2022-11-24T02:41:25.383Z,37.43
2022-11-24T02:43:55.264Z,37.28
2022-11-24T02:46:22.365Z,37.42
2022-11-24T02:48:49.362Z,37.58
2022-11-24T02:51:16.262Z,37.57
2022-11-24T02:53:43.126Z,37.36
2022-11-24T02:56:10.038Z,37.74
2022-11-24T02:58:37.074Z,37.44
2022-11-24T03:01:04.059Z,37.44
2022-11-24T03:03:31.038Z,37.45
2022-11-24T03:05:57.919Z,37.84
2022-11-24T03:08:24.764Z,37.55
2022-11-24T03:10:51.672Z,37.53
2022-11-24T03:13:18.570Z,37.34
2022-11-24T03:15:45.474Z,37.11
2022-11-24T03:18:12.410Z,37.32
2022-11-24T03:20:39.339Z,37.30
2022-11-24T03:23:06.209Z,37.19
2022-11-24T03:25:33.075Z,37.05
2022-11-24T03:27:59.967Z,36.74
2022-11-24T03:30:26.844Z,36.65
2022-11-24T03:32:53.916Z,36.46
2022-11-24T03:35:21.385Z,36.45
2022-11-24T03:37:48.294Z,36.20
2022-11-24T03:40:15.211Z,35.79
2022-11-24T03:42:42.077Z,35.95
2022-11-24T03:45:37.952Z,35.82
2022-11-24T03:47:56.119Z,35.78
2022-11-24T03:50:22.957Z,35.38
2022-11-24T03:52:49.824Z,35.41
2022-11-24T03:55:16.752Z,35.22
2022-11-24T03:57:43.624Z,34.89
2022-11-24T04:00:11.194Z,34.95
2022-11-24T04:02:38.425Z,35.04
2022-11-24T04:05:06.031Z,34.82
2022-11-24T04:07:33.035Z,34.79
2022-11-24T04:09:59.990Z,34.55
2022-11-24T04:12:53.252Z,34.66
2022-11-24T04:15:20.340Z,34.59
2022-11-24T04:17:47.959Z,34.50
2022-11-24T04:20:15.560Z,34.03
2022-11-24T04:22:42.979Z,33.87
2022-11-24T04:25:10.209Z,33.95
2022-11-24T04:27:37.344Z,33.85
2022-11-24T04:30:05.539Z,33.84
2022-11-24T04:32:32.445Z,34.02
2022-11-24T04:34:59.301Z,34.04
2022-11-24T04:37:26.191Z,33.63
2022-11-24T04:39:55.013Z,33.83
2022-11-24T04:42:22.064Z,33.18
2022-11-24T04:44:49.106Z,33.55
2022-11-24T04:47:22.065Z,32.96
2022-11-24T04:49:51.966Z,33.25
2022-11-24T04:52:22.731Z,33.14
2022-11-24T04:54:49.778Z,33.33
2022-11-24T04:57:23.784Z,33.34
2022-11-24T04:59:51.366Z,33.74
2022-11-24T05:02:18.583Z,33.74
2022-11-24T05:04:46.159Z,34.18
2022-11-24T05:07:18.356Z,34.32
2022-11-24T05:10:05.832Z,34.15
2022-11-24T05:12:32.796Z,33.97
2022-11-24T05:15:00.889Z,34.12
2022-11-24T05:17:35.881Z,33.74
2022-11-24T05:20:03.017Z,33.35
2022-11-24T05:22:30.330Z,33.23
2022-11-24T05:24:57.388Z,32.73
2022-11-24T05:27:24.261Z,32.60
2022-11-24T05:29:51.141Z,32.49
2022-11-24T05:32:18.115Z,32.09
2022-11-24T05:34:45.034Z,31.87
2022-11-24T05:37:12.054Z,31.69
2022-11-24T05:39:39.131Z,31.60
2022-11-24T05:42:25.870Z,31.10
2022-11-24T05:44:53.383Z,30.92
2022-11-24T05:47:20.804Z,30.82
2022-11-24T05:49:47.857Z,30.75
2022-11-24T05:52:15.033Z,30.41
2022-11-24T05:54:42.145Z,30.42
2022-11-24T05:57:09.088Z,30.19
2022-11-24T05:59:36.154Z,30.10
2022-11-24T06:02:03.544Z,30.00
2022-11-24T06:04:30.686Z,29.84
2022-11-24T06:06:57.990Z,29.55
2022-11-24T06:09:25.017Z,29.32
2022-11-24T06:11:51.873Z,29.11
2022-11-24T06:14:18.848Z,28.95
2022-11-24T06:16:45.799Z,28.94
2022-11-24T06:19:12.795Z,28.79
2022-11-24T06:21:39.917Z,28.74
2022-11-24T06:24:07.382Z,28.59
2022-11-24T06:26:34.286Z,28.36
2022-11-24T06:29:01.453Z,28.17
2022-11-24T06:31:28.500Z,28.10
2022-11-24T06:33:55.630Z,28.08
2022-11-24T06:36:22.674Z,28.08
2022-11-24T06:38:49.635Z,27.90
2022-11-24T06:41:16.663Z,28.15
2022-11-24T06:43:43.810Z,28.28
2022-11-24T06:46:11.150Z,28.15
2022-11-24T06:48:38.495Z,28.13
2022-11-24T06:51:09.133Z,28.03
2022-11-24T06:53:39.642Z,28.08
2022-11-24T06:56:13.837Z,28.10
2022-11-24T06:58:48.144Z,27.86
2022-11-24T07:01:25.491Z,27.42
2022-11-24T07:03:53.290Z,27.06
2022-11-24T07:06:20.632Z,27.14
2022-11-24T07:08:47.687Z,27.13
2022-11-24T07:11:16.511Z,26.96
2022-11-24T07:13:43.660Z,27.47
2022-11-24T07:16:16.786Z,27.17
2022-11-24T07:18:44.531Z,27.12
2022-11-24T07:21:11.754Z,27.15
2022-11-24T07:23:38.924Z,26.91
2022-11-24T07:26:07.107Z,26.74
2022-11-24T07:28:34.978Z,26.80
2022-11-24T07:31:08.919Z,26.74
2022-11-24T07:33:36.051Z,26.57
2022-11-24T07:36:03.462Z,26.48
2022-11-24T07:38:31.112Z,26.71
2022-11-24T07:41:08.514Z,26.40
2022-11-24T07:43:36.284Z,26.36
2022-11-24T07:46:04.491Z,26.28
2022-11-24T07:48:32.170Z,26.09
2022-11-24T07:51:00.507Z,26.47
2022-11-24T07:53:27.929Z,26.56
2022-11-24T07:56:00.538Z,26.33
2022-11-24T07:58:32.357Z,26.02
2022-11-24T08:01:00.638Z,25.71
2022-11-24T08:03:28.017Z,25.44
2022-11-24T08:06:22.086Z,25.44
2022-11-24T08:08:43.361Z,25.29
2022-11-24T08:11:12.375Z,25.49
2022-11-24T08:13:39.671Z,23.59
2022-11-24T08:16:15.379Z,24.57
2022-11-24T08:18:42.448Z,25.06
2022-11-24T08:21:12.911Z,25.60
2022-11-24T08:23:39.892Z,25.43
2022-11-24T08:26:08.967Z,25.94
2022-11-24T08:28:36.590Z,24.56
2022-11-24T08:31:08.562Z,25.16
2022-11-24T08:33:35.625Z,25.22
2022-11-24T08:36:06.878Z,25.36
2022-11-24T08:38:33.993Z,25.48
2022-11-24T08:41:05.412Z,25.60
2022-11-24T08:43:32.617Z,24.88
2022-11-24T08:46:01.346Z,24.77
2022-11-24T08:48:28.714Z,25.36
2022-11-24T08:50:56.088Z,25.28
2022-11-24T08:53:23.505Z,25.08
2022-11-24T08:55:50.463Z,25.16
2022-11-24T08:58:17.505Z,25.25
2022-11-24T09:00:44.518Z,25.10
2022-11-24T09:03:11.972Z,25.34
2022-11-24T09:05:54.186Z,24.78
2022-11-24T09:08:21.200Z,24.82
2022-11-24T09:10:48.120Z,25.30
2022-11-24T09:13:15.032Z,24.98
2022-11-24T09:15:42.016Z,25.17
2022-11-24T09:18:08.983Z,24.91
2022-11-24T09:20:48.065Z,24.72
2022-11-24T09:23:15.088Z,25.01
2022-11-24T09:25:42.045Z,24.91
2022-11-24T09:28:08.970Z,24.74
2022-11-24T09:30:35.986Z,24.90
2022-11-24T09:33:03.278Z,24.90
2022-11-24T09:35:30.165Z,24.52
2022-11-24T09:37:57.119Z,24.42
2022-11-24T09:40:24.126Z,24.75
2022-11-24T09:43:03.464Z,24.29
2022-11-24T09:46:07.040Z,24.97
2022-11-24T09:48:36.668Z,24.57
2022-11-24T09:51:03.969Z,24.55
2022-11-24T09:53:44.715Z,24.39
2022-11-24T09:56:28.591Z,24.46
2022-11-24T09:59:21.946Z,24.79
2022-11-24T10:01:49.469Z,24.77
2022-11-24T10:04:26.555Z,24.89
2022-11-24T10:06:56.847Z,24.44
2022-11-24T10:09:25.218Z,24.98
2022-11-24T10:12:16.870Z,24.23
2022-11-24T10:14:52.748Z,24.25
2022-11-24T10:17:55.120Z,24.31
2022-11-24T10:20:31.238Z,24.54
2022-11-24T10:23:16.467Z,24.82
2022-11-24T10:25:59.319Z,25.33
2022-11-24T10:28:37.849Z,25.70
2022-11-24T10:31:23.934Z,26.25
2022-11-24T10:33:51.106Z,26.55
2022-11-24T10:36:37.237Z,26.77
2022-11-24T10:39:10.457Z,26.99
2022-11-24T10:41:42.982Z,27.35
2022-11-24T10:44:14.128Z,27.29
2022-11-24T10:46:41.285Z,27.20
2022-11-24T10:49:08.347Z,27.10
2022-11-24T10:52:12.940Z,27.75
2022-11-24T10:55:12.453Z,27.80
2022-11-24T10:57:40.204Z,27.94
2022-11-24T11:00:30.332Z,27.96
2022-11-24T11:03:24.431Z,27.77
2022-11-24T11:05:56.654Z,27.98
2022-11-24T11:08:25.709Z,24.76
2022-11-24T11:11:16.526Z,23.73
2022-11-24T11:14:32.025Z,24.50
2022-11-24T11:16:59.011Z,24.38
2022-11-24T11:19:58.496Z,24.33
2022-11-24T11:22:26.584Z,24.12
2022-11-24T11:25:11.737Z,24.31
2022-11-24T11:27:39.706Z,24.21
2022-11-24T11:36:09.832Z,24.27
2022-11-24T11:38:38.057Z,23.09
2022-11-24T11:41:05.372Z,23.54
2022-11-24T11:43:34.881Z,23.55
2022-11-24T11:46:19.791Z,23.79
2022-11-24T11:48:47.031Z,23.74
2022-11-24T11:54:53.409Z,24.11
2022-11-24T11:57:55.685Z,23.82
2022-11-24T12:00:22.789Z,24.04
2022-11-24T12:03:17.263Z,24.25
2022-11-24T12:06:07.730Z,24.05
2022-11-24T12:11:58.045Z,24.00
2022-11-24T12:14:59.124Z,24.42
2022-11-24T12:18:16.985Z,24.25
2022-11-24T12:21:12.546Z,24.19
2022-11-24T12:23:48.966Z,24.22
2022-11-24T12:26:34.786Z,24.09
2022-11-24T12:29:42.337Z,24.19
2022-11-24T12:32:47.176Z,24.32
2022-11-24T12:35:44.128Z,24.51
2022-11-24T12:38:10.969Z,24.39
2022-11-24T12:41:39.942Z,24.60
2022-11-24T12:43:59.480Z,24.50
2022-11-24T12:46:32.360Z,24.73
2022-11-24T12:49:04.979Z,24.38
2022-11-24T12:51:34.166Z,24.53
2022-11-24T12:54:02.819Z,23.35
2022-11-24T12:56:36.048Z,23.10
2022-11-24T12:59:06.063Z,22.87
2022-11-24T13:01:36.092Z,23.58
2022-11-24T13:04:11.902Z,24.28
2022-11-24T13:06:47.463Z,24.30
2022-11-24T13:09:16.321Z,24.61
2022-11-24T13:11:44.337Z,24.43
2022-11-24T13:14:30.033Z,24.53
2022-11-24T13:19:47.709Z,24.18
2022-11-24T13:22:35.659Z,24.36
2022-11-24T13:25:17.844Z,23.95
2022-11-24T13:27:55.514Z,24.02
2022-11-24T13:30:34.592Z,23.66
2022-11-24T13:33:02.612Z,24.54
2022-11-24T13:35:29.871Z,24.83
2022-11-24T13:37:56.898Z,24.95
2022-11-24T13:40:23.863Z,24.63
2022-11-24T13:43:01.612Z,24.79
2022-11-24T13:45:41.114Z,24.77
2022-11-24T13:48:20.657Z,24.91
2022-11-24T13:50:50.991Z,25.39
2022-11-24T13:53:40.850Z,25.15
2022-11-24T13:56:13.658Z,25.34
2022-11-24T13:58:50.498Z,25.22
2022-11-24T14:01:20.646Z,25.16
2022-11-24T14:07:08.237Z,25.41
2022-11-24T14:09:46.154Z,25.47
2022-11-24T14:12:20.848Z,25.40
2022-11-24T14:14:49.158Z,25.64
2022-11-24T14:17:22.765Z,25.52
2022-11-24T14:19:51.741Z,25.04
2022-11-24T14:22:26.868Z,25.36
2022-11-24T14:25:00.924Z,25.32
2022-11-24T14:27:29.471Z,25.22
2022-11-24T14:30:03.141Z,25.25
2022-11-24T14:32:30.929Z,25.01
2022-11-24T14:34:58.029Z,25.25
2022-11-24T14:37:25.071Z,24.77
2022-11-24T14:39:52.135Z,25.04
2022-11-24T14:42:19.015Z,25.21
2022-11-24T14:45:03.884Z,25.31
2022-11-24T14:47:37.969Z,25.33
2022-11-24T14:50:15.827Z,25.17
2022-11-24T14:52:54.148Z,25.43
2022-11-24T14:55:29.185Z,25.38
2022-11-24T14:57:56.526Z,25.21
2022-11-24T15:00:27.176Z,25.39
2022-11-24T15:03:01.044Z,25.69
2022-11-24T15:05:52.734Z,25.68
2022-11-24T15:08:19.739Z,25.94
2022-11-24T15:10:46.605Z,25.77
2022-11-24T15:13:18.254Z,26.20
2022-11-24T15:16:06.920Z,26.10
2022-11-24T15:18:44.939Z,26.42
2022-11-24T15:21:18.636Z,26.57
2022-11-24T15:24:05.976Z,26.41
2022-11-24T15:26:40.220Z,26.25
2022-11-24T15:29:10.400Z,26.64
2022-11-24T15:31:38.572Z,26.85
2022-11-24T15:34:05.697Z,27.02
2022-11-24T15:36:33.300Z,27.38
2022-11-24T15:39:00.274Z,27.25
2022-11-24T15:41:31.477Z,27.47
2022-11-24T15:44:01.380Z,27.72
2022-11-24T15:46:29.269Z,27.54
2022-11-24T15:48:56.475Z,27.76
2022-11-24T15:51:25.119Z,27.86
2022-11-24T15:53:57.096Z,27.96
2022-11-24T15:56:36.889Z,28.03
2022-11-24T15:59:04.023Z,28.12
2022-11-24T16:01:32.355Z,28.07
2022-11-24T16:04:00.266Z,28.33
2022-11-24T16:06:27.241Z,28.38
2022-11-24T16:08:54.299Z,28.07
2022-11-24T16:11:21.772Z,28.17
2022-11-24T16:13:52.963Z,28.33
2022-11-24T16:16:21.723Z,28.68
2022-11-24T16:18:48.731Z,28.67
2022-11-24T16:21:15.642Z,28.87
2022-11-24T16:23:42.666Z,29.12
2022-11-24T16:26:09.590Z,29.17
2022-11-24T16:28:36.447Z,29.10
2022-11-24T16:31:03.599Z,29.52
2022-11-24T16:33:32.226Z,29.33
2022-11-24T16:35:59.219Z,29.29
2022-11-24T16:38:26.163Z,29.59
2022-11-24T16:40:53.994Z,29.48
2022-11-24T16:43:20.957Z,29.75
2022-11-24T16:46:16.139Z,29.87
2022-11-24T16:48:43.571Z,29.81
2022-11-24T16:51:10.950Z,30.18
2022-11-24T16:53:38.188Z,30.09
2022-11-24T16:56:05.266Z,30.03
2022-11-24T16:58:32.183Z,30.14
2022-11-24T17:01:10.480Z,30.52
2022-11-24T17:03:37.637Z,30.44
2022-11-24T17:06:11.913Z,30.55
2022-11-24T17:08:39.679Z,30.95
2022-11-24T17:11:17.004Z,31.21
2022-11-24T17:13:44.017Z,31.03
2022-11-24T17:16:12.344Z,31.10
2022-11-24T17:18:39.430Z,31.33
2022-11-24T17:21:09.784Z,31.43
2022-11-24T17:23:37.147Z,31.36
2022-11-24T17:26:08.974Z,31.50
2022-11-24T17:28:36.075Z,31.52
2022-11-24T17:31:15.707Z,31.51
2022-11-24T17:33:42.658Z,31.51
2022-11-24T17:36:09.569Z,31.67
2022-11-24T17:38:36.937Z,31.97
2022-11-24T17:41:03.972Z,31.99
2022-11-24T17:43:30.993Z,32.02
2022-11-24T17:46:00.924Z,31.96
2022-11-24T17:48:28.297Z,31.78
2022-11-24T17:51:12.989Z,31.79
2022-11-24T17:53:40.701Z,31.90
2022-11-24T17:56:07.862Z,32.22
2022-11-24T17:58:39.701Z,32.45
2022-11-24T18:01:09.671Z,32.36
2022-11-24T18:03:36.568Z,32.64
2022-11-24T18:06:07.545Z,32.69
2022-11-24T18:08:35.224Z,32.58
2022-11-24T18:11:24.695Z,32.63
2022-11-24T18:13:59.732Z,33.02
2022-11-24T18:16:30.055Z,32.92
2022-11-24T18:19:07.843Z,33.22
2022-11-24T18:21:35.901Z,33.19
2022-11-24T18:24:02.727Z,33.16
2022-11-24T18:26:29.604Z,33.26
2022-11-24T18:28:56.504Z,33.30
2022-11-24T18:31:23.475Z,33.02
2022-11-24T18:33:50.311Z,33.13
2022-11-24T18:36:18.837Z,33.40
2022-11-24T18:38:46.023Z,33.22
2022-11-24T18:41:13.755Z,33.39
2022-11-24T18:43:40.653Z,33.66
2022-11-24T18:46:14.891Z,33.54
2022-11-24T18:48:42.469Z,33.78
2022-11-24T18:51:14.314Z,33.36
2022-11-24T18:53:45.814Z,33.50
2022-11-24T18:56:15.819Z,33.53
2022-11-24T18:58:43.073Z,33.39
2022-11-24T19:01:12.741Z,33.29
2022-11-24T19:03:47.818Z,33.51
2022-11-24T19:06:17.331Z,33.74
2022-11-24T19:08:45.137Z,33.41
2022-11-24T19:11:19.316Z,33.79
2022-11-24T19:13:47.620Z,33.68
2022-11-24T19:16:14.782Z,33.62
2022-11-24T19:18:41.729Z,33.74
2022-11-24T19:21:08.670Z,33.99
2022-11-24T19:23:35.559Z,34.11
2022-11-24T19:26:03.151Z,34.41
2022-11-24T19:28:30.007Z,34.34
2022-11-24T19:31:01.356Z,34.45
2022-11-24T19:33:28.356Z,34.68
2022-11-24T19:36:02.372Z,34.93
2022-11-24T19:38:30.526Z,34.84
2022-11-24T19:41:04.527Z,34.09
2022-11-24T19:43:31.663Z,34.09
2022-11-24T19:46:08.408Z,33.80
2022-11-24T19:48:38.336Z,33.88
2022-11-24T19:51:06.807Z,34.29
2022-11-24T19:53:34.572Z,34.82
2022-11-24T19:56:07.640Z,35.31
2022-11-24T19:58:34.676Z,35.68
2022-11-24T20:01:14.476Z,35.46
2022-11-24T20:03:42.128Z,35.39
2022-11-24T20:06:10.369Z,34.86
2022-11-24T20:08:37.677Z,35.27
2022-11-24T20:11:04.809Z,35.83
2022-11-24T20:13:32.173Z,34.98
2022-11-24T20:16:05.754Z,34.97
2022-11-24T20:18:35.220Z,34.84
2022-11-24T20:21:09.203Z,34.75
2022-11-24T20:23:36.143Z,35.35
2022-11-24T20:26:06.964Z,35.88
2022-11-24T20:28:33.985Z,36.24
2022-11-24T20:31:05.273Z,35.94
2022-11-24T20:33:32.174Z,36.04
2022-11-24T20:36:13.296Z,35.78
2022-11-24T20:38:40.499Z,35.73
2022-11-24T20:41:33.691Z,36.32
2022-11-24T20:44:03.817Z,36.63
2022-11-24T20:46:32.141Z,36.11
2022-11-24T20:48:59.920Z,36.32
2022-11-24T20:51:31.515Z,36.46
2022-11-24T20:54:00.535Z,36.33
2022-11-24T20:56:31.815Z,35.84
2022-11-24T20:58:58.823Z,35.65
2022-11-24T21:01:28.221Z,35.56
2022-11-24T21:03:56.478Z,35.61
2022-11-24T21:06:23.485Z,35.82
2022-11-24T21:08:51.017Z,35.53
2022-11-24T21:11:18.152Z,35.85
2022-11-24T21:13:45.377Z,35.64
2022-11-24T21:16:15.936Z,35.76
2022-11-24T21:18:43.547Z,35.99
2022-11-24T21:21:10.505Z,35.88
2022-11-24T21:23:37.403Z,36.22
2022-11-24T21:26:07.461Z,36.05
2022-11-24T21:28:37.216Z,35.99
2022-11-24T21:31:09.627Z,36.23
2022-11-24T21:33:49.936Z,36.27
2022-11-24T21:36:18.654Z,36.31
2022-11-24T21:38:50.412Z,36.44
2022-11-24T21:41:17.331Z,36.63
2022-11-24T21:43:44.308Z,37.38
2022-11-24T21:46:11.480Z,37.07
2022-11-24T21:48:38.649Z,36.81
2022-11-24T21:51:07.272Z,36.98
2022-11-24T21:53:35.628Z,36.53
2022-11-24T21:56:07.364Z,36.71
2022-11-24T21:58:34.308Z,36.97
2022-11-24T22:01:05.797Z,37.03
2022-11-24T22:03:32.710Z,37.70
2022-11-24T22:05:59.979Z,37.00
2022-11-24T22:08:27.888Z,37.03
2022-11-24T22:10:55.445Z,37.56
2022-11-24T22:13:22.466Z,37.98
2022-11-24T22:15:58.187Z,37.02
2022-11-24T22:18:25.056Z,36.88
2022-11-24T22:20:55.852Z,37.00
2022-11-24T22:23:22.712Z,36.69
2022-11-24T22:25:49.535Z,36.68
2022-11-24T22:28:16.385Z,37.27
2022-11-24T22:30:43.239Z,37.77
2022-11-24T22:33:10.204Z,38.16
2022-11-24T22:35:37.107Z,38.20
2022-11-24T22:38:03.969Z,38.25
2022-11-24T22:40:30.846Z,38.50
2022-11-24T22:42:58.247Z,38.35
2022-11-24T22:45:25.223Z,38.36
2022-11-24T22:47:55.154Z,38.26
2022-11-24T22:50:22.013Z,38.58
2022-11-24T22:52:50.189Z,38.55
2022-11-24T22:55:17.071Z,38.85
2022-11-24T22:57:48.078Z,38.49
2022-11-24T23:00:16.356Z,38.94
2022-11-24T23:02:43.278Z,38.84
2022-11-24T23:05:10.223Z,38.54
2022-11-24T23:07:37.124Z,38.73
2022-11-24T23:10:04.123Z,38.67
2022-11-24T23:12:30.942Z,38.42
2022-11-24T23:14:57.915Z,39.17
2022-11-24T23:17:24.741Z,38.48
2022-11-24T23:19:51.579Z,38.06
2022-11-24T23:22:18.450Z,37.94
2022-11-24T23:24:45.319Z,38.35
2022-11-24T23:27:12.162Z,38.21
2022-11-24T23:29:39.939Z,38.41
2022-11-24T23:32:06.797Z,38.68
2022-11-24T23:34:33.832Z,39.02
2022-11-24T23:37:00.913Z,38.64
2022-11-24T23:39:27.724Z,39.17
2022-11-24T23:41:54.550Z,38.45
2022-11-24T23:44:22.153Z,38.43
2022-11-24T23:46:49.040Z,37.89
2022-11-24T23:49:15.856Z,37.88
2022-11-24T23:51:42.822Z,38.33
2022-11-24T23:56:54.220Z,39.62
2022-11-24T23:59:22.658Z,38.91
